< Typhoon 197506 1975 Season Typhoon 197508 >
Typhoon 197507 (SUSAN)
General InformationTrack Information on Google Maps || Disaster Info.ResourceGoogle EarthGE AnimationAtom FeedGeoJSON
Detalied Best Track (Time Zone = UTC)
Year Month Day Hour Lat. Long. Pressure (hPa) Wind (kt) Class Image Chart
1975 8 25 06 24.7 154.1 1006 0 2 -- Chart
1975 8 25 12 24.2 154.3 1006 0 2 -- Chart
1975 8 25 18 24.2 153.7 1002 0 2 -- Chart
1975 8 26 00 24.6 153.6 1002 0 2 -- Chart
1975 8 26 06 25.0 153.2 998 0 2 -- Chart
1975 8 26 12 25.5 153.0 1000 0 2 -- Chart
1975 8 26 18 26.5 152.6 1000 0 2 -- Chart
1975 8 27 00 27.4 152.4 1000 0 2 -- Chart
1975 8 27 06 29.2 152.6 1000 0 2 -- Chart
1975 8 27 12 30.5 152.2 1002 0 2 -- Chart
1975 8 27 18 31.5 151.6 1002 0 2 -- Chart
1975 8 28 00 32.5 150.8 1002 0 2 -- Chart
1975 8 28 06 33.3 151.1 1000 0 2 -- Chart
1975 8 28 12 33.7 151.5 998 0 9 -- Chart
1975 8 28 18 34.4 152.2 996 0 9 -- Chart
1975 8 29 00 35.0 152.6 994 0 9 -- Chart
1975 8 29 06 35.7 153.7 994 0 9 -- Chart
1975 8 29 12 36.3 154.7 994 0 9 -- Chart
1975 8 29 18 36.8 155.7 994 0 9 -- Chart
1975 8 30 00 37.0 157.0 990 0 9 -- Chart
1975 8 30 06 37.2 157.8 985 0 9 -- Chart
1975 8 30 12 37.4 158.4 985 0 9 -- Chart
1975 8 30 18 37.6 158.7 985 0 9 -- Chart
1975 8 31 00 37.8 159.0 985 0 9 -- Chart
1975 8 31 06 38.6 159.3 985 0 9 -- Chart
1975 8 31 12 39.5 159.0 985 0 9 -- Chart
1975 8 31 18 39.7 158.0 990 0 9 -- Chart
1975 9 1 00 39.8 157.3 992 0 9 -- Chart
1975 9 1 06 39.9 156.7 992 0 9 -- Chart
1975 9 1 12 40.0 156.0 994 0 9 -- Chart
1975 9 1 18 40.4 155.7 994 0 9 -- Chart
1975 9 2 00 41.0 155.7 996 0 9 -- Chart
1975 9 2 06 41.6 155.7 1000 0 9 -- Chart
1975 9 2 12 42.2 155.8 1004 0 2 -- Chart
1975 9 2 18 42.7 155.9 1008 0 2 -- Chart
1975 9 3 00 43.2 156.0 1012 0 2 -- Chart
1975 9 3 06 43.6 156.0 1012 0 2 -- Chart
1975 9 3 12 44.5 156.2 1012 0 2 -- Chart
1975 9 3 18 45.4 156.5 1012 0 2 -- Chart
Japan Meteorological Agency Best Track Data | Correction Date : 1989-06-01
< Typhoon 197506 1975 Season Typhoon 197508 >

Help